Time;durP1;ratioP1;P1;durP2;ratioP2;P2;SDS_P1;SDS_P2;PMS_P1;PMS_P2;Temp;Humidity;BMP_temperature;BMP_pressure;BME280_temperature;BME280_humidity;BME280_pressure;Samples;Min_cycle;Max_cycle;Signal;HPM_P1;HPM_P2
2021/09/15 00:00:47;;;;;;;9.55;6.00;;;21.20;85.00;;;;;;5013278;28;20033;-73
2021/09/15 00:03:12;;;;;;;8.43;5.72;;;21.20;85.00;;;;;;5013530;28;20017;-72
2021/09/15 00:05:38;;;;;;;9.70;6.45;;;21.20;85.00;;;;;;5013449;28;20025;-72
2021/09/15 00:08:03;;;;;;;8.10;6.15;;;21.20;84.90;;;;;;5030607;28;20457;-73
2021/09/15 00:10:29;;;;;;;8.25;6.07;;;21.20;84.90;;;;;;5031393;28;20034;-72
2021/09/15 00:12:55;;;;;;;8.95;6.15;;;21.20;84.80;;;;;;5013524;28;20030;-73
2021/09/15 00:15:20;;;;;;;9.93;5.90;;;21.20;84.80;;;;;;5013719;28;20075;-72
2021/09/15 00:17:46;;;;;;;8.65;6.05;;;21.20;84.90;;;;;;5030668;28;20483;-73
2021/09/15 00:20:11;;;;;;;9.38;6.53;;;21.20;85.00;;;;;;5013580;28;20574;-72
2021/09/15 00:22:37;;;;;;;7.72;5.85;;;21.20;84.70;;;;;;5031380;28;20498;-73
2021/09/15 00:25:03;;;;;;;9.00;6.18;;;21.20;84.70;;;;;;5013769;28;20494;-74
2021/09/15 00:27:29;;;;;;;7.55;5.93;;;21.20;84.70;;;;;;5013550;28;20368;-73
2021/09/15 00:29:54;;;;;;;9.02;6.45;;;21.10;84.80;;;;;;5013167;28;20151;-72
2021/09/15 00:32:20;;;;;;;7.90;5.93;;;21.10;85.00;;;;;;5014772;28;20487;-73
2021/09/15 00:34:45;;;;;;;9.73;6.13;;;21.10;85.10;;;;;;5013239;28;20518;-74
2021/09/15 00:37:11;;;;;;;9.85;5.90;;;21.10;85.10;;;;;;5012635;28;20048;-74
2021/09/15 00:39:37;;;;;;;8.18;6.30;;;21.10;85.20;;;;;;5030625;28;20410;-74
2021/09/15 00:42:04;;;;;;;11.57;6.05;;;21.10;85.20;;;;;;5013554;28;20490;-73
2021/09/15 00:44:30;;;;;;;9.48;6.30;;;21.10;85.20;;;;;;5013039;28;20022;-74
2021/09/15 00:46:56;;;;;;;8.82;6.13;;;21.10;85.20;;;;;;5034378;28;20091;-73
2021/09/15 00:49:21;;;;;;;9.40;6.15;;;21.10;85.20;;;;;;5016694;28;20025;-73
2021/09/15 00:51:47;;;;;;;9.43;6.13;;;21.10;85.10;;;;;;5034819;28;20475;-73
2021/09/15 00:54:15;;;;;;;8.52;6.05;;;21.10;85.10;;;;;;5016983;28;20041;-74
2021/09/15 00:56:40;;;;;;;7.88;5.40;;;21.10;85.20;;;;;;5034509;28;20025;-73
2021/09/15 00:59:06;;;;;;;10.98;6.32;;;21.10;85.10;;;;;;5016504;28;20087;-73
2021/09/15 01:01:32;;;;;;;9.43;6.18;;;21.10;85.10;;;;;;5012812;28;20025;-73
2021/09/15 01:03:58;;;;;;;8.73;5.97;;;21.10;85.20;;;;;;5024492;28;20108;-73
2021/09/15 01:06:24;;;;;;;8.82;6.10;;;21.00;85.10;;;;;;5016007;28;20033;-73
2021/09/15 01:08:50;;;;;;;8.15;6.25;;;21.10;85.10;;;;;;5033228;28;20491;-72
2021/09/15 01:11:16;;;;;;;9.13;5.65;;;21.10;85.20;;;;;;5033560;28;20426;-72
2021/09/15 01:13:42;;;;;;;8.48;5.63;;;21.10;85.20;;;;;;5015702;28;20025;-74
2021/09/15 01:16:08;;;;;;;9.10;6.18;;;21.10;85.20;;;;;;5032850;28;20025;-73
2021/09/15 01:18:34;;;;;;;9.43;6.03;;;21.00;85.10;;;;;;5033385;28;20029;-73
2021/09/15 01:21:00;;;;;;;9.60;6.47;;;21.10;85.10;;;;;;5015184;28;20033;-74
2021/09/15 01:23:26;;;;;;;8.68;5.82;;;21.10;84.90;;;;;;5033060;28;20039;-73
2021/09/15 01:25:51;;;;;;;9.20;5.95;;;21.10;85.00;;;;;;5015867;28;20108;-72
2021/09/15 01:28:17;;;;;;;8.48;6.35;;;21.10;84.90;;;;;;5015160;28;20021;-72
2021/09/15 01:30:44;;;;;;;10.32;6.43;;;21.10;84.90;;;;;;5033251;28;20032;-72
2021/09/15 01:33:14;;;;;;;9.77;6.22;;;21.10;84.70;;;;;;5033246;28;20041;-72
2021/09/15 01:35:41;;;;;;;8.15;5.90;;;21.10;84.70;;;;;;5014878;28;20034;-73
2021/09/15 01:38:07;;;;;;;10.65;5.80;;;21.10;84.70;;;;;;5014863;28;20060;-73
2021/09/15 01:40:33;;;;;;;8.93;5.70;;;21.10;84.70;;;;;;5033155;28;20483;-75
2021/09/15 01:42:58;;;;;;;10.80;6.35;;;21.10;84.70;;;;;;5015649;28;20029;-73
2021/09/15 01:45:24;;;;;;;8.52;5.95;;;21.10;84.90;;;;;;5015357;28;20560;-73
2021/09/15 01:47:49;;;;;;;9.45;6.80;;;21.10;85.00;;;;;;5033133;28;20548;-73
2021/09/15 01:50:15;;;;;;;9.77;6.43;;;21.00;85.20;;;;;;5015634;28;20538;-73
2021/09/15 01:52:41;;;;;;;9.30;6.47;;;21.00;85.40;;;;;;5032043;28;20068;-73
2021/09/15 01:55:17;;;;;;;9.57;6.55;;;21.00;85.60;;;;;;5015226;28;20377;-72
2021/09/15 01:57:42;;;;;;;10.63;6.47;;;21.00;85.60;;;;;;5029265;28;20075;-73
2021/09/15 02:00:09;;;;;;;10.20;6.85;;;20.90;85.60;;;;;;5013870;28;20045;-72
2021/09/15 02:02:34;;;;;;;10.80;7.13;;;21.00;85.70;;;;;;5014787;28;20108;-73
2021/09/15 02:04:59;;;;;;;9.30;6.63;;;21.00;85.70;;;;;;5015105;28;20124;-73
2021/09/15 02:07:25;;;;;;;8.70;6.53;;;21.00;85.80;;;;;;5014288;28;20430;-73
2021/09/15 02:09:50;;;;;;;10.40;6.40;;;20.90;85.70;;;;;;5014196;28;20116;-73
2021/09/15 02:12:16;;;;;;;8.85;6.65;;;21.00;85.70;;;;;;5032592;28;20029;-72
2021/09/15 02:14:41;;;;;;;10.60;7.38;;;21.00;85.60;;;;;;5032373;28;20026;-72
2021/09/15 02:17:07;;;;;;;9.75;6.47;;;21.00;85.40;;;;;;5014635;28;20033;-74
2021/09/15 02:19:33;;;;;;;8.60;6.00;;;21.00;85.40;;;;;;5027618;28;20061;-72
2021/09/15 02:21:59;;;;;;;8.38;6.22;;;21.00;85.40;;;;;;5013495;28;20034;-73
2021/09/15 02:24:24;;;;;;;10.75;6.25;;;21.10;85.30;;;;;;5018081;28;20022;-72
2021/09/15 02:26:50;;;;;;;7.70;6.00;;;21.00;85.30;;;;;;5032469;28;20022;-73
2021/09/15 02:29:15;;;;;;;9.00;6.90;;;21.00;85.40;;;;;;5031591;28;20030;-73
2021/09/15 02:31:41;;;;;;;9.57;6.20;;;21.00;85.20;;;;;;5013634;28;20061;-73
2021/09/15 02:34:06;;;;;;;8.82;6.38;;;21.00;85.20;;;;;;5014372;28;20033;-72
2021/09/15 02:36:32;;;;;;;8.70;6.28;;;21.00;85.30;;;;;;5014448;28;20021;-73
2021/09/15 02:38:57;;;;;;;8.10;6.10;;;21.00;85.20;;;;;;5013669;28;20025;-73
2021/09/15 02:41:23;;;;;;;7.88;5.93;;;21.00;85.20;;;;;;5031555;28;20474;-73
2021/09/15 02:43:48;;;;;;;8.77;6.20;;;21.00;85.30;;;;;;5014143;28;20031;-73
2021/09/15 02:46:14;;;;;;;11.65;6.63;;;21.00;85.40;;;;;;5031514;28;20104;-73
2021/09/15 02:48:39;;;;;;;10.10;6.68;;;21.00;85.60;;;;;;5014329;28;20021;-73
2021/09/15 02:51:05;;;;;;;9.77;6.28;;;21.00;85.60;;;;;;5014496;28;20072;-73
2021/09/15 02:53:30;;;;;;;8.27;6.40;;;21.00;85.90;;;;;;5031033;28;20033;-72
2021/09/15 02:55:56;;;;;;;9.30;7.00;;;21.00;85.90;;;;;;5014068;28;20379;-73
2021/09/15 02:58:21;;;;;;;10.48;7.18;;;21.00;86.00;;;;;;5031451;28;20030;-73
2021/09/15 03:00:47;;;;;;;11.18;7.00;;;21.00;86.00;;;;;;5012897;28;20040;-73
2021/09/15 03:03:12;;;;;;;10.00;6.97;;;21.00;86.10;;;;;;5031824;28;20433;-73
2021/09/15 03:05:38;;;;;;;9.13;6.95;;;21.00;86.20;;;;;;5017968;28;20506;-73
2021/09/15 03:08:04;;;;;;;9.43;6.85;;;20.90;86.20;;;;;;5031112;28;20487;-73
2021/09/15 03:10:29;;;;;;;10.15;6.97;;;20.90;86.30;;;;;;5031803;28;20029;-73
2021/09/15 03:12:55;;;;;;;8.60;6.82;;;21.00;86.20;;;;;;5013523;28;20048;-73
2021/09/15 03:15:21;;;;;;;9.93;6.78;;;20.90;86.10;;;;;;5031014;28;20095;-73
2021/09/15 03:17:46;;;;;;;9.45;7.30;;;20.90;86.10;;;;;;5013926;28;20036;-74
2021/09/15 03:20:12;;;;;;;10.63;6.60;;;20.90;86.40;;;;;;5013522;28;20095;-74
2021/09/15 03:22:38;;;;;;;10.57;7.28;;;20.90;86.30;;;;;;5030586;28;20395;-73
2021/09/15 03:25:05;;;;;;;11.20;7.05;;;21.00;86.30;;;;;;5013347;28;20057;-73
2021/09/15 03:27:30;;;;;;;9.15;6.72;;;21.00;86.30;;;;;;5013123;28;20029;-73
2021/09/15 03:29:56;;;;;;;9.45;6.65;;;21.00;86.00;;;;;;5012393;28;20087;-74
2021/09/15 03:32:21;;;;;;;9.38;7.00;;;21.00;86.00;;;;;;5013319;28;22003;-73
2021/09/15 03:34:47;;;;;;;8.98;6.70;;;21.00;85.90;;;;;;5013560;28;20095;-73
2021/09/15 03:37:12;;;;;;;8.77;6.15;;;21.00;85.90;;;;;;5030838;28;20430;-73
2021/09/15 03:39:38;;;;;;;8.80;6.68;;;21.00;85.90;;;;;;5030873;28;20104;-74
2021/09/15 03:42:04;;;;;;;8.77;6.18;;;21.00;86.00;;;;;;5013739;28;20021;-73
2021/09/15 03:44:30;;;;;;;10.30;6.50;;;21.00;86.00;;;;;;5030766;28;20025;-73
2021/09/15 03:46:55;;;;;;;8.02;6.07;;;21.00;86.20;;;;;;5013375;28;20538;-74
2021/09/15 03:49:21;;;;;;;10.48;6.20;;;21.00;86.00;;;;;;5013012;28;20033;-74
2021/09/15 03:51:48;;;;;;;9.43;6.70;;;20.90;86.20;;;;;;5030590;28;20033;-73
2021/09/15 03:54:14;;;;;;;9.60;6.75;;;20.90;86.10;;;;;;5030598;28;20026;-73
2021/09/15 03:56:40;;;;;;;9.50;7.18;;;20.90;86.10;;;;;;5013093;28;20116;-73
2021/09/15 03:59:05;;;;;;;9.57;7.03;;;20.90;86.50;;;;;;5012297;28;20597;-74
2021/09/15 04:01:31;;;;;;;9.05;6.68;;;20.90;86.20;;;;;;5012536;28;20025;-73
2021/09/15 04:03:56;;;;;;;8.60;6.25;;;21.00;86.30;;;;;;5031110;28;20021;-73
2021/09/15 04:06:22;;;;;;;8.75;6.50;;;20.90;86.30;;;;;;5030482;28;20021;-73
2021/09/15 04:08:47;;;;;;;9.32;6.75;;;20.90;86.30;;;;;;5030666;28;20155;-73
2021/09/15 04:11:13;;;;;;;10.75;7.05;;;20.90;86.30;;;;;;5013441;28;20026;-72
2021/09/15 04:13:38;;;;;;;9.55;6.30;;;20.90;86.30;;;;;;5012437;28;20131;-73
2021/09/15 04:16:04;;;;;;;8.20;6.10;;;21.00;86.50;;;;;;5030730;28;20033;-73
2021/09/15 04:18:30;;;;;;;9.07;6.40;;;20.90;86.50;;;;;;5012289;28;20035;-72
2021/09/15 04:20:55;;;;;;;10.57;7.00;;;20.90;86.60;;;;;;5030660;28;20060;-73
2021/09/15 04:31:35;;;;;;;9.40;6.53;;;20.90;87.00;;;;;;5034043;28;20032;-73
2021/09/15 04:34:02;;;;;;;8.63;6.28;;;20.90;87.10;;;;;;5034699;28;20026;-74
2021/09/15 04:36:28;;;;;;;8.35;6.30;;;20.90;87.30;;;;;;5016574;28;20030;-74
2021/09/15 04:38:53;;;;;;;9.63;6.63;;;20.90;87.50;;;;;;5034390;28;20091;-74
2021/09/15 04:41:19;;;;;;;9.25;6.47;;;20.90;87.30;;;;;;5016130;28;20526;-73
2021/09/15 04:43:45;;;;;;;12.88;6.10;;;20.90;87.10;;;;;;5033213;28;20026;-73
2021/09/15 04:46:11;;;;;;;9.07;6.03;;;20.90;87.00;;;;;;5034259;28;20037;-73
2021/09/15 04:48:40;;;;;;;8.88;6.15;;;21.00;86.80;;;;;;5016339;28;20470;-72
2021/09/15 04:51:06;;;;;;;8.43;6.03;;;21.00;87.10;;;;;;5015755;28;20045;-72
2021/09/15 04:53:32;;;;;;;8.75;6.03;;;21.00;86.80;;;;;;5033809;28;20086;-72
2021/09/15 04:55:58;;;;;;;8.00;5.82;;;21.00;87.00;;;;;;5034163;28;20498;-73
2021/09/15 04:58:24;;;;;;;9.13;5.70;;;21.00;86.90;;;;;;5032544;28;20025;-72
2021/09/15 05:00:49;;;;;;;8.85;6.47;;;21.00;87.10;;;;;;5015494;28;20033;-73
2021/09/15 05:03:15;;;;;;;8.90;6.10;;;21.00;87.20;;;;;;5009575;28;20036;-75
2021/09/15 05:05:41;;;;;;;10.02;6.53;;;21.00;87.40;;;;;;5008896;28;20475;-73
2021/09/15 05:08:07;;;;;;;14.20;6.60;;;21.00;87.50;;;;;;5027236;28;20061;-72
2021/09/15 05:10:32;;;;;;;12.55;6.72;;;21.00;87.10;;;;;;5008071;28;20048;-74
2021/09/15 05:12:58;;;;;;;11.20;6.70;;;21.10;87.10;;;;;;5018533;28;20026;-73
2021/09/15 05:15:25;;;;;;;10.40;6.47;;;21.10;87.20;;;;;;5016995;28;20022;-73
2021/09/15 05:17:51;;;;;;;10.55;6.93;;;21.10;86.70;;;;;;5017622;28;20038;-72
2021/09/15 05:20:18;;;;;;;12.35;7.03;;;21.10;86.80;;;;;;5001443;28;20026;-73
2021/09/15 05:22:47;;;;;;;10.93;6.35;;;21.20;86.90;;;;;;5024545;28;20076;-73
2021/09/15 05:25:14;;;;;;;13.82;6.30;;;21.10;85.90;;;;;;5022011;28;20451;-73
2021/09/15 05:27:40;;;;;;;15.90;6.57;;;21.20;86.80;;;;;;5010742;28;20125;-73
2021/09/15 05:30:06;;;;;;;13.18;7.47;;;21.30;86.60;;;;;;5028068;28;20346;-74
2021/09/15 05:32:32;;;;;;;19.52;7.63;;;21.40;86.30;;;;;;5004126;28;20021;-74
2021/09/15 05:34:58;;;;;;;19.65;7.68;;;21.40;86.30;;;;;;5003839;28;20590;-74
2021/09/15 05:37:23;;;;;;;17.17;7.47;;;21.40;86.90;;;;;;5020517;28;20034;-77
2021/09/15 05:39:49;;;;;;;17.65;7.88;;;21.40;86.80;;;;;;5029319;28;20247;-73
2021/09/15 05:42:14;;;;;;;18.00;7.65;;;21.50;86.20;;;;;;5011071;28;20561;-75
2021/09/15 05:44:40;;;;;;;18.55;7.25;;;21.40;85.90;;;;;;5028424;28;20557;-72
2021/09/15 05:47:05;;;;;;;19.17;7.10;;;21.30;86.40;;;;;;5010446;28;20082;-74
2021/09/15 05:49:31;;;;;;;15.00;6.55;;;21.20;86.60;;;;;;5027364;28;20083;-74
2021/09/15 05:51:56;;;;;;;17.60;7.47;;;21.20;86.80;;;;;;5008164;28;20450;-73
2021/09/15 05:54:22;;;;;;;11.98;6.53;;;21.20;86.80;;;;;;4989906;28;20037;-73
2021/09/15 05:56:47;;;;;;;13.80;6.10;;;21.20;86.30;;;;;;5013609;28;20053;-72
2021/09/15 05:59:13;;;;;;;11.43;6.53;;;21.20;86.00;;;;;;5016052;28;20041;-73
2021/09/15 06:01:38;;;;;;;13.27;6.32;;;21.20;85.80;;;;;;5020890;28;20065;-73
2021/09/15 06:04:04;;;;;;;12.65;6.13;;;21.20;85.70;;;;;;5027380;28;20025;-74
2021/09/15 06:06:30;;;;;;;12.57;6.10;;;21.30;85.90;;;;;;5009829;28;20034;-73
2021/09/15 06:08:55;;;;;;;11.50;6.28;;;21.20;85.60;;;;;;5009596;28;20036;-73
2021/09/15 06:11:21;;;;;;;11.05;6.40;;;21.20;85.60;;;;;;5009575;28;20124;-75
2021/09/15 06:13:47;;;;;;;10.77;6.15;;;21.30;85.40;;;;;;5009224;28;20037;-72
2021/09/15 06:16:13;;;;;;;10.95;6.07;;;21.20;85.30;;;;;;5027384;28;20033;-74
2021/09/15 06:18:38;;;;;;;10.38;6.03;;;21.30;85.40;;;;;;5006377;28;20029;-73
2021/09/15 06:21:04;;;;;;;10.50;6.30;;;21.20;85.30;;;;;;4999488;28;20033;-73
2021/09/15 06:23:31;;;;;;;12.18;6.35;;;21.30;85.10;;;;;;4998421;28;20041;-74
2021/09/15 06:25:58;;;;;;;10.00;6.53;;;21.20;85.30;;;;;;4997427;28;20058;-72
2021/09/15 06:28:23;;;;;;;12.93;5.85;;;21.30;85.30;;;;;;5014555;28;20394;-74
2021/09/15 06:30:49;;;;;;;10.25;5.95;;;21.30;85.30;;;;;;4999936;28;20033;-73
2021/09/15 06:33:15;;;;;;;9.02;5.80;;;21.30;85.30;;;;;;5026321;28;20083;-72
2021/09/15 06:35:40;;;;;;;8.55;5.93;;;21.30;85.40;;;;;;5029107;28;20036;-73
2021/09/15 06:38:09;;;;;;;9.02;5.72;;;21.30;85.60;;;;;;5025633;28;20033;-73
2021/09/15 06:40:34;;;;;;;7.95;5.55;;;21.30;85.20;;;;;;5018595;28;20034;-74
2021/09/15 06:43:00;;;;;;;10.02;5.97;;;21.30;85.00;;;;;;4998389;28;20450;-72
2021/09/15 06:45:25;;;;;;;9.13;5.50;;;21.30;85.00;;;;;;5003519;28;20025;-74
2021/09/15 06:47:51;;;;;;;7.72;5.82;;;21.30;84.70;;;;;;5027180;28;20021;-72
2021/09/15 06:50:16;;;;;;;8.23;5.35;;;21.30;85.00;;;;;;5004552;28;20037;-73
2021/09/15 06:52:42;;;;;;;9.77;5.75;;;21.30;85.30;;;;;;5014899;28;20431;-73
2021/09/15 06:55:08;;;;;;;8.55;5.50;;;21.30;85.50;;;;;;5002998;28;20509;-72
2021/09/15 06:57:34;;;;;;;9.88;5.85;;;21.30;85.30;;;;;;5027193;28;20033;-74
2021/09/15 06:59:59;;;;;;;12.50;5.57;;;21.30;85.10;;;;;;5032918;28;20037;-75
2021/09/15 07:02:25;;;;;;;10.45;5.47;;;21.40;85.50;;;;;;5005890;28;20026;-72
2021/09/15 07:04:52;;;;;;;12.48;5.82;;;21.40;85.30;;;;;;5000600;28;20076;-74
2021/09/15 07:07:18;;;;;;;18.25;5.80;;;21.30;85.10;;;;;;5013317;28;20070;-73
2021/09/15 07:09:43;;;;;;;13.13;5.80;;;21.30;84.90;;;;;;5015252;28;20030;-73
2021/09/15 07:12:09;;;;;;;11.65;6.45;;;21.30;85.20;;;;;;5024153;28;20223;-73
2021/09/15 07:14:34;;;;;;;9.70;6.50;;;21.20;85.70;;;;;;5024693;28;20064;-73
2021/09/15 07:17:00;;;;;;;9.75;6.60;;;21.20;86.00;;;;;;5017229;28;20056;-73
2021/09/15 07:19:25;;;;;;;10.65;6.80;;;21.20;86.30;;;;;;5016440;28;20033;-74
2021/09/15 07:21:51;;;;;;;11.35;6.75;;;21.20;85.90;;;;;;5022287;28;20029;-75
2021/09/15 07:24:18;;;;;;;10.00;6.60;;;21.30;86.80;;;;;;5011110;28;20056;-74
2021/09/15 07:26:43;;;;;;;12.85;7.22;;;21.20;87.60;;;;;;4994790;28;20540;-74
2021/09/15 07:29:09;;;;;;;12.57;7.13;;;21.30;87.70;;;;;;5017086;28;20750;-73
2021/09/15 07:31:37;;;;;;;16.17;8.15;;;21.30;88.30;;;;;;4995779;28;20036;-75
2021/09/15 07:34:04;;;;;;;16.00;8.63;;;21.30;89.10;;;;;;4996292;28;20044;-72
2021/09/15 07:36:29;;;;;;;11.85;8.02;;;21.30;89.70;;;;;;4998003;28;20025;-73
2021/09/15 07:38:55;;;;;;;12.45;8.88;;;21.20;90.00;;;;;;5013346;28;20464;-73
2021/09/15 07:41:20;;;;;;;12.65;8.95;;;21.20;90.30;;;;;;4997065;28;20017;-74
2021/09/15 07:43:46;;;;;;;11.48;9.32;;;21.10;90.50;;;;;;5001017;28;20083;-72
2021/09/15 07:46:12;;;;;;;10.90;8.82;;;21.10;90.60;;;;;;5024746;28;20248;-73
2021/09/15 07:48:38;;;;;;;12.32;9.13;;;21.10;90.70;;;;;;5006124;28;20029;-73
2021/09/15 07:51:03;;;;;;;11.88;9.02;;;21.20;90.90;;;;;;5024470;28;20367;-72
2021/09/15 07:53:29;;;;;;;11.45;9.18;;;21.20;90.90;;;;;;5006505;28;20132;-73
2021/09/15 07:55:55;;;;;;;13.70;9.07;;;21.10;91.30;;;;;;4999934;28;20033;-72
2021/09/15 07:58:20;;;;;;;12.75;9.35;;;21.10;91.20;;;;;;4987081;28;20191;-72
2021/09/15 08:00:46;;;;;;;12.70;9.13;;;21.10;91.20;;;;;;4987041;28;20030;-73
2021/09/15 08:03:12;;;;;;;11.00;8.57;;;21.10;91.30;;;;;;4986719;28;20480;-72
2021/09/15 08:05:37;;;;;;;12.25;8.73;;;21.10;91.30;;;;;;4987085;28;20692;-74
2021/09/15 08:08:03;;;;;;;26.90;9.65;;;21.10;91.30;;;;;;4986721;28;20033;-73
2021/09/15 08:10:29;;;;;;;12.77;9.45;;;21.10;91.30;;;;;;4986325;28;20089;-74
2021/09/15 08:12:55;;;;;;;12.85;9.68;;;21.10;91.30;;;;;;4987083;28;20026;-73
2021/09/15 08:15:21;;;;;;;10.57;8.98;;;21.10;91.50;;;;;;4986911;28;20030;-74
2021/09/15 08:17:46;;;;;;;11.93;8.70;;;21.10;91.40;;;;;;4986537;28;20380;-74
2021/09/15 08:20:12;;;;;;;10.32;8.50;;;21.10;91.20;;;;;;4986866;28;20087;-73
2021/09/15 08:22:38;;;;;;;11.02;7.88;;;21.10;90.90;;;;;;4986950;28;20026;-73
2021/09/15 08:25:04;;;;;;;9.98;8.15;;;21.10;90.70;;;;;;5004224;28;20072;-73
2021/09/15 08:27:31;;;;;;;12.77;8.18;;;21.10;90.70;;;;;;4986877;28;20032;-75
2021/09/15 08:29:57;;;;;;;10.90;8.63;;;21.20;90.70;;;;;;4986682;28;20514;-74
2021/09/15 08:32:22;;;;;;;12.75;8.88;;;21.20;91.00;;;;;;4986830;28;20503;-73
2021/09/15 08:34:48;;;;;;;11.05;9.50;;;21.10;91.30;;;;;;4987016;28;20029;-73
2021/09/15 08:37:13;;;;;;;12.70;10.38;;;21.20;91.70;;;;;;4986740;28;20045;-74
2021/09/15 08:39:39;;;;;;;14.20;10.57;;;21.10;91.90;;;;;;4986209;28;20030;-73
2021/09/15 08:42:04;;;;;;;13.73;10.70;;;21.10;92.10;;;;;;4986651;28;20030;-75
2021/09/15 08:44:31;;;;;;;13.57;11.30;;;21.00;92.30;;;;;;4986617;28;20041;-72
2021/09/15 08:46:58;;;;;;;12.98;10.70;;;21.00;92.60;;;;;;4986431;28;20026;-74
2021/09/15 08:49:25;;;;;;;13.07;11.35;;;21.00;92.70;;;;;;4986635;28;20568;-72
2021/09/15 08:51:51;;;;;;;13.35;11.30;;;21.00;92.80;;;;;;4986663;28;20107;-73
2021/09/15 08:54:17;;;;;;;15.57;11.50;;;20.90;93.00;;;;;;4986592;28;20100;-72
2021/09/15 08:56:43;;;;;;;13.48;11.57;;;21.00;93.10;;;;;;4998559;28;20071;-76
2021/09/15 08:59:08;;;;;;;14.60;12.20;;;21.00;93.30;;;;;;5006027;28;20124;-73
2021/09/15 09:01:34;;;;;;;15.10;12.45;;;21.00;93.50;;;;;;5005867;28;20292;-74
2021/09/15 09:04:00;;;;;;;13.80;11.77;;;20.90;93.60;;;;;;5006294;28;20033;-73
2021/09/15 09:06:30;;;;;;;14.10;11.75;;;21.00;93.50;;;;;;5007918;28;20052;-76
2021/09/15 09:08:57;;;;;;;15.23;12.10;;;21.00;93.50;;;;;;5009321;28;20021;-75
2021/09/15 09:11:25;;;;;;;14.35;12.00;;;21.10;93.40;;;;;;5008848;28;20059;-74
2021/09/15 09:13:56;;;;;;;14.55;11.65;;;21.10;93.20;;;;;;5009670;28;20060;-73
2021/09/15 09:16:35;;;;;;;14.07;11.65;;;21.10;93.10;;;;;;5009474;28;20491;-74
2021/09/15 09:19:07;;;;;;;13.65;11.95;;;21.10;93.30;;;;;;5008989;28;20034;-73
2021/09/15 09:21:35;;;;;;;15.93;13.15;;;21.10;93.50;;;;;;5009239;28;20112;-73
2021/09/15 09:24:07;;;;;;;14.98;12.15;;;21.00;93.60;;;;;;5009103;28;20021;-76
2021/09/15 09:26:44;;;;;;;;;;;21.10;93.70;;;;;;5010056;28;20632;-74
2021/09/15 09:29:12;;;;;;;15.05;13.05;;;21.00;94.10;;;;;;5009531;28;19916;-73
2021/09/15 09:31:38;;;;;;;15.85;13.48;;;21.00;94.40;;;;;;5009547;28;20601;-73
2021/09/15 09:34:04;;;;;;;15.93;13.18;;;21.00;94.80;;;;;;5027178;28;20057;-73
2021/09/15 09:36:29;;;;;;;16.40;14.70;;;20.90;95.00;;;;;;5009241;28;20037;-73
2021/09/15 09:38:55;;;;;;;16.55;14.35;;;20.90;95.40;;;;;;5008689;28;20036;-73
2021/09/15 09:41:22;;;;;;;17.67;14.40;;;21.00;95.50;;;;;;5009416;28;20061;-75
2021/09/15 09:43:50;;;;;;;17.15;14.85;;;21.00;95.50;;;;;;5009244;28;20039;-74
2021/09/15 09:46:19;;;;;;;16.30;13.68;;;21.10;95.60;;;;;;5009021;28;20025;-73
2021/09/15 09:48:46;;;;;;;16.33;12.68;;;21.10;95.30;;;;;;5008988;28;20026;-75
2021/09/15 09:51:31;;;;;;;15.02;13.35;;;21.10;94.70;;;;;;5009420;28;20025;-74
2021/09/15 09:54:06;;;;;;;14.95;13.05;;;21.10;95.10;;;;;;5008736;28;20091;-73
2021/09/15 09:56:34;;;;;;;14.27;12.25;;;21.00;94.80;;;;;;4998213;28;20033;-73
2021/09/15 09:59:00;;;;;;;14.90;11.95;;;21.00;94.90;;;;;;4988980;28;20034;-73
2021/09/15 10:01:29;;;;;;;12.90;11.50;;;21.00;94.60;;;;;;4988767;28;20045;-73
2021/09/15 10:03:54;;;;;;;12.18;10.77;;;21.00;94.30;;;;;;4989229;28;20022;-74
2021/09/15 10:06:20;;;;;;;13.60;11.15;;;21.10;94.20;;;;;;4989344;28;20553;-75
2021/09/15 10:08:47;;;;;;;13.55;11.25;;;21.10;94.30;;;;;;4988707;28;20420;-74
2021/09/15 10:11:14;;;;;;;11.70;10.45;;;21.10;94.40;;;;;;4988432;28;20061;-75
2021/09/15 10:13:40;;;;;;;12.73;10.38;;;21.20;94.20;;;;;;4988955;28;20040;-73
2021/09/15 10:16:07;;;;;;;11.73;10.00;;;21.10;93.70;;;;;;5006450;28;20026;-73
2021/09/15 10:18:33;;;;;;;11.52;9.55;;;21.20;93.70;;;;;;4994113;28;20030;-78
2021/09/15 10:21:00;;;;;;;12.52;9.57;;;21.10;93.50;;;;;;5019737;28;20032;-74
2021/09/15 10:23:34;;;;;;;12.10;10.45;;;21.20;93.50;;;;;;5010242;28;20025;-74
2021/09/15 10:26:39;;;;;;;13.63;10.70;;;21.20;93.80;;;;;;5030096;28;20021;-74
2021/09/15 10:29:19;;;;;;;11.60;10.40;;;21.20;94.00;;;;;;5010709;28;20021;-75
2021/09/15 10:32:01;;;;;;;13.20;9.80;;;21.20;93.90;;;;;;5010718;28;20052;-74
2021/09/15 10:34:36;;;;;;;14.13;10.25;;;21.20;93.70;;;;;;5027687;28;20040;-75
2021/09/15 10:37:12;;;;;;;12.52;9.68;;;21.20;93.50;;;;;;5007342;28;20027;-74
2021/09/15 10:40:01;;;;;;;11.68;9.40;;;21.20;93.30;;;;;;5007677;28;20067;-76
2021/09/15 10:42:39;;;;;;;13.38;9.98;;;21.30;93.30;;;;;;5007364;28;20029;-73
2021/09/15 10:45:10;;;;;;;10.98;9.55;;;21.30;93.30;;;;;;5006116;28;20037;-72
2021/09/15 10:47:38;;;;;;;12.68;9.43;;;21.30;92.70;;;;;;5025948;28;20060;-74
2021/09/15 10:50:04;;;;;;;10.32;8.82;;;21.30;92.90;;;;;;5006190;28;20021;-73
2021/09/15 10:52:38;;;;;;;13.13;9.80;;;21.30;92.70;;;;;;5025490;28;20030;-74
2021/09/15 10:55:15;;;;;;;12.85;11.02;;;21.30;93.30;;;;;;5007764;28;20040;-73
2021/09/15 10:57:44;;;;;;;16.80;12.23;;;21.30;93.90;;;;;;5005242;28;20029;-73
2021/09/15 11:00:15;;;;;;;13.40;11.98;;;21.30;94.80;;;;;;4986588;28;20065;-74
2021/09/15 11:02:41;;;;;;;12.93;11.48;;;21.20;95.10;;;;;;5005337;28;20032;-73
2021/09/15 11:05:25;;;;;;;16.38;12.88;;;21.30;95.10;;;;;;5005598;28;20507;-74
2021/09/15 11:07:51;;;;;;;16.15;12.82;;;21.30;94.80;;;;;;5003377;28;20029;-73
2021/09/15 11:10:34;;;;;;;15.85;12.45;;;21.30;95.10;;;;;;5004298;28;20509;-73
2021/09/15 11:13:39;;;;;;;15.88;13.63;;;21.20;95.30;;;;;;5004167;28;20105;-76
2021/09/15 11:16:36;;;;;;;14.40;12.90;;;21.30;95.50;;;;;;4987631;28;20033;-73
2021/09/15 11:19:18;;;;;;;14.60;12.48;;;21.20;95.60;;;;;;5005054;28;20026;-73
2021/09/15 11:21:53;;;;;;;15.15;12.85;;;21.30;95.40;;;;;;5005230;28;20053;-74
2021/09/15 11:24:25;;;;;;;15.73;12.80;;;21.30;95.50;;;;;;5003555;28;20436;-73
2021/09/15 11:26:58;;;;;;;16.48;13.73;;;21.30;95.80;;;;;;4987471;28;20551;-73
2021/09/15 11:29:53;;;;;;;14.18;12.52;;;21.30;96.00;;;;;;5003637;28;20057;-73
2021/09/15 11:32:20;;;;;;;16.67;13.23;;;21.20;96.20;;;;;;4986935;28;20089;-73
2021/09/15 11:34:48;;;;;;;16.55;12.63;;;21.20;96.40;;;;;;5005198;28;20040;-73
2021/09/15 11:37:31;;;;;;;14.88;11.70;;;21.20;96.40;;;;;;5004333;28;20021;-74
2021/09/15 11:40:03;;;;;;;16.25;12.38;;;21.20;96.40;;;;;;5003436;28;20468;-74
2021/09/15 11:42:32;;;;;;;15.57;12.38;;;21.30;96.50;;;;;;4987243;28;20529;-73
2021/09/15 11:45:12;;;;;;;15.85;12.73;;;21.20;96.60;;;;;;4987151;28;20120;-73
2021/09/15 11:47:38;;;;;;;14.38;11.10;;;21.20;96.80;;;;;;5003682;28;20025;-73
2021/09/15 11:50:23;;;;;;;11.77;9.95;;;21.20;96.80;;;;;;5004544;28;20559;-74
2021/09/15 11:52:57;;;;;;;13.88;9.88;;;21.10;96.90;;;;;;4987288;28;20034;-73
2021/09/15 11:55:23;;;;;;;12.13;9.82;;;21.20;96.80;;;;;;4988252;28;20034;-74
2021/09/15 11:58:00;;;;;;;13.25;9.90;;;21.10;96.90;;;;;;5024562;28;20364;-76
2021/09/15 12:00:26;;;;;;;12.70;9.50;;;21.10;96.90;;;;;;5003856;28;20040;-75
2021/09/15 12:02:54;;;;;;;13.02;9.10;;;21.20;97.00;;;;;;5019879;28;20076;-74
2021/09/15 12:05:20;;;;;;;12.27;8.75;;;21.20;96.50;;;;;;5023192;28;20741;-72
2021/09/15 12:07:46;;;;;;;14.35;8.90;;;21.30;96.30;;;;;;5006142;28;20029;-75
2021/09/15 12:10:13;;;;;;;13.07;8.70;;;21.20;96.20;;;;;;5014101;28;20029;-73
2021/09/15 12:12:39;;;;;;;11.98;8.43;;;21.30;96.30;;;;;;5006856;28;20026;-73
2021/09/15 12:15:06;;;;;;;13.52;8.18;;;21.30;95.90;;;;;;5006406;28;20021;-74
2021/09/15 12:17:33;;;;;;;12.77;8.27;;;21.30;95.50;;;;;;5025570;28;20037;-77
2021/09/15 12:19:59;;;;;;;12.05;7.70;;;21.40;95.30;;;;;;5007513;28;20034;-74
2021/09/15 12:22:28;;;;;;;13.80;8.07;;;21.30;95.10;;;;;;5007185;28;20454;-77
2021/09/15 12:24:58;;;;;;;12.88;7.78;;;21.30;94.90;;;;;;5024346;28;20049;-75
2021/09/15 12:27:24;;;;;;;14.55;8.15;;;21.30;94.50;;;;;;5026422;28;20018;-74
2021/09/15 12:30:02;;;;;;;12.60;7.28;;;21.30;94.20;;;;;;5016786;28;20902;-74
2021/09/15 12:32:30;;;;;;;18.33;9.25;;;21.30;94.70;;;;;;4990983;28;20034;-73
2021/09/15 12:34:56;;;;;;;15.10;9.68;;;21.30;94.50;;;;;;5005386;28;20026;-73
2021/09/15 12:37:21;;;;;;;18.30;10.75;;;21.40;94.40;;;;;;4987937;28;20084;-74
2021/09/15 12:39:57;;;;;;;27.75;13.90;;;21.40;94.20;;;;;;5020330;28;20033;-74
2021/09/15 12:42:28;;;;;;;23.83;11.10;;;21.40;94.10;;;;;;5025647;28;20025;-73
2021/09/15 12:45:03;;;;;;;13.60;8.43;;;21.40;93.60;;;;;;5009293;28;20368;-73
2021/09/15 12:47:40;;;;;;;16.42;9.43;;;21.40;94.20;;;;;;5028371;28;20022;-74